Home > Products > Valid Products > TAF

000
FTUS42 KJAX 310500 RRA
TAFGNV
TAF
KGNV 310545Z 3106/0106 31006KT P6SM SCT015 BKN040
     FM311300 31009KT P6SM FEW040
     FM312300 27005KT P6SM SKC=



000
FTUS42 KJAX 310500 RRA
TAFSSI
TAF
KSSI 310545Z 3106/0106 34006KT P6SM SCT020
     FM311500 32009KT P6SM FEW040
     FM312300 27005KT P6SM SKC=



000
FTUS42 KJAX 310500
TAFJAX
TAF
KJAX 310540Z 3106/0106 31004KT P6SM SCT025 BKN035
      TEMPO 3108/3112 BKN025
     FM311500 31010KT P6SM FEW040
     FM312300 27005KT P6SM SKC=



000
FTUS42 KJAX 310500
TAFCRG
TAF
KCRG 310540Z 3106/0106 31004KT P6SM SCT025 BKN035
      TEMPO 3108/3112 BKN025
     FM311500 32010KT P6SM FEW040
     FM312300 27005KT P6SM SKC=



000
FTUS42 KJAX 310200 AAB
TAFSSI
TAF AMD
KSSI 310240Z 3103/3124 36005KT P6SM VCSH SCT030 BKN100
     FM310600 34006KT P6SM SCT020 SCT120
     FM311500 33010KT P6SM FEW040=



000
FTUS42 KJAX 310200 AAA
TAFGNV
TAF AMD
KGNV 310239Z 3103/3124 35004KT P6SM SCT040 BKN080
     FM310500 34006KT P6SM SCT015 BKN040
     FM311500 32008KT P6SM FEW040=



000
FTUS42 KJAX 310200 AAA
TAFJAX
TAF AMD
KJAX 310236Z 3103/3124 35005KT P6SM VCSH SCT018 OVC040
      TEMPO 3103/3107 BKN018
     FM310700 33006KT P6SM SCT020 BKN060
     FM311500 31010KT P6SM FEW040=



000
FTUS42 KJAX 310100 AAA
TAFCRG
TAF AMD
KCRG 310121Z 3101/3124 05005KT P6SM VCSH BKN015 OVC035
      TEMPO 3102/3106 SCT015 OVC035
     FM310600 34006KT P6SM SCT020 BKN060
     FM311500 33008KT P6SM FEW040=



000
FTUS42 KJAX 310000 AAA
TAFSSI
TAF AMD
KSSI 310036Z 3101/3124 03006KT P6SM VCSH BKN020 BKN120
     FM310800 35006KT P6SM SCT020 SCT120
     FM311500 33008KT P6SM FEW040=



000
FTUS42 KJAX 310000 AAA
TAFJAX
TAF AMD
KJAX 310009Z 3100/3124 05005KT P6SM VCSH BKN018 OVC040
      TEMPO 3101/3105 SCT018 OVC040
     FM310500 35006KT P6SM SCT020 BKN060
     FM311500 33008KT P6SM FEW040=



000
FTUS42 KJAX 302300
TAFCRG
TAF
KCRG 302320Z 3100/3124 06005KT P6SM VCSH SCT030 BKN050
     FM310200 34006KT P6SM SCT020 BKN060
     FM310600 35006KT P6SM SCT015 BKN060
     FM311500 33008KT P6SM FEW040=



000
FTUS42 KJAX 302300
TAFSSI
TAF
KSSI 302320Z 3100/3124 03006KT P6SM VCSH SCT020 BKN120
     FM310800 35006KT P6SM FEW020 SCT250
     FM311500 33008KT P6SM FEW040=



000
FTUS42 KJAX 302300
TAFJAX
TAF
KJAX 302320Z 3100/3124 05005KT P6SM VCSH SCT030 BKN080
     FM310200 35006KT P6SM SCT015 BKN060
     FM311500 33008KT P6SM FEW040=



000
FTUS42 KJAX 302300
TAFGNV
TAF
KGNV 302320Z 3100/3124 31005KT 6SM -SHRA SCT035 OVC050
     FM310200 33004KT P6SM VCSH SCT020 BKN040
     FM310500 35006KT P6SM SCT015 BKN060
     FM311500 33008KT P6SM FEW040=



000
FTUS42 KJAX 302300 AAC
TAFGNV
TAF AMD
KGNV 302304Z 3023/3118 31005KT 3SM -TSRA SCT035CB BKN080
      TEMPO 3023/3024 1SM TSRA BKN025CB
     FM310100 33004KT P6SM VCSH SCT020 BKN040
     FM310500 35006KT P6SM SCT015 BKN060
     FM311500 33008KT P6SM FEW040=



000
FTUS42 KJAX 302200 AAB
TAFJAX
TAF AMD
KJAX 302243Z 3023/3118 05005KT P6SM VCSH SCT030 BKN050
     FM310300 35006KT P6SM SCT015 BKN060
     FM311500 33008KT P6SM FEW040=



000
FTUS42 KJAX 302200 AAB
TAFCRG
TAF AMD
KCRG 302243Z 3023/3118 06008KT P6SM VCSH SCT030 BKN050
     FM310300 34006KT P6SM SCT020 BKN040
     FM310600 35006KT P6SM SCT015 BKN060
     FM311500 33008KT P6SM FEW040=



000
FTUS42 KJAX 302100 AAB
TAFGNV
TAF AMD
KGNV 302158Z 3022/3118 31005KT P6SM VCTS SCT025CB BKN080
      TEMPO 3022/3023 3SM TSRA BKN025CB
     FM302300 33004KT P6SM VCSH SCT020 BKN040
     FM310700 35006KT P6SM SCT015 BKN060
     FM311500 33008KT P6SM FEW040=



000
FTUS42 KJAX 302100 AAB
TAFGNV
TAF AMD
KGNV 302158Z 3022/3118 31005KT P6SM VCTS SCT025CB BKN080
      TEMPO 3022/3023 3SM TSRA BKN025CB
     FM302300 33004KT P6SM VCSH SCT020 BKN040
     FM310700 35006KT P6SM SCT015 BKN060
     FM311500 33008KT P6SM FEW040=



000
FTUS42 KJAX 302000 AAA
TAFCRG
TAF AMD
KCRG 302045Z 3021/3118 06008KT P6SM VCTS SCT030CB BKN050
      TEMPO 3021/3023 3SM SHRA OVC025
     FM302300 34006KT P6SM VCSH SCT020 BKN040
     FM310600 35006KT P6SM SCT015 BKN060
     FM311500 33008KT P6SM FEW040=



000
FTUS42 KJAX 302000 AAA
TAFGNV
TAF AMD
KGNV 302032Z 3021/3118 31005KT P6SM VCTS SCT025CB BKN080
      TEMPO 3021/3023 SHRA BKN025
     FM302300 33004KT P6SM VCSH SCT020 BKN040
     FM310700 35006KT P6SM SCT015 BKN060
     FM311500 33008KT P6SM FEW040=



000
FTUS42 KJAX 302000 AAA
TAFJAX
TAF AMD
KJAX 302029Z 3020/3118 34005KT P6SM VCTS SCT040CB BKN250
     FM302200 34006KT P6SM VCSH SCT020 BKN040
     FM310600 35006KT P6SM SCT015 BKN060
     FM311500 33008KT P6SM FEW040=



000
FTUS42 KJAX 301700
TAFCRG
TAF
KCRG 301728Z 3018/3118 34006KT P6SM VCSH SCT025 BKN250
      TEMPO 3018/3020 -SHRA BKN025
     FM302000 06008KT P6SM VCTS SCT030CB BKN050
     FM302300 34006KT P6SM VCSH SCT020 BKN040
     FM310600 35006KT P6SM SCT015 BKN060
     FM311500 33008KT P6SM FEW040=



000
FTUS42 KJAX 301700
TAFSSI
TAF
KSSI 301728Z 3018/3118 04008KT P6SM VCSH SCT025 BKN080
     FM302300 03006KT P6SM VCSH SCT020 BKN120
     FM310800 35006KT P6SM FEW020 SCT250
     FM311500 33008KT P6SM FEW040=



000
FTUS42 KJAX 301700
TAFJAX
TAF
KJAX 301728Z 3018/3118 34005KT P6SM VCSH FEW030 SCT040 BKN250
     FM302100 06008KT P6SM VCTS SCT030CB BKN050
     FM302300 34006KT P6SM VCSH SCT020 BKN040
     FM310600 35006KT P6SM SCT015 BKN060
     FM311500 33008KT P6SM FEW040=



000
FTUS42 KJAX 301700
TAFGNV
TAF
KGNV 301728Z 3018/3118 34005KT P6SM VCSH SCT025 BKN080
      TEMPO 3018/3021 SHRA BKN025
     FM302300 33004KT P6SM VCSH SCT020 BKN040
     FM310700 35006KT P6SM SCT015 BKN060
     FM311500 33008KT P6SM FEW040=



000
FTUS42 KJAX 301700
TAFJAX
TAF
KJAX 301728Z 3018/3118 34005KT P6SM VCSH FEW030 SCT040 BKN250
     FM302100 06008KT P6SM VCTS SCT030CB BKN050
     FM302300 34006KT P6SM VCSH SCT020 BKN040
     FM310600 35006KT P6SM SCT015 BKN060
     FM311500 33008KT P6SM FEW040=



000
FTUS42 KJAX 301700
TAFGNV
TAF
KGNV 301728Z 3018/3118 34005KT P6SM VCSH SCT025 BKN080
      TEMPO 3018/3021 SHRA BKN025
     FM302300 33004KT P6SM VCSH SCT020 BKN040
     FM310700 35006KT P6SM SCT015 BKN060
     FM311500 33008KT P6SM FEW040=



000
FTUS42 KJAX 301700
TAFSSI
TAF
KSSI 301728Z 3018/3118 04008KT P6SM VCSH SCT025 BKN080
     FM302300 03006KT P6SM VCSH SCT020 BKN120
     FM310800 35006KT P6SM FEW020 SCT250
     FM311500 33008KT P6SM FEW040=



000
FTUS42 KJAX 301700
TAFCRG
TAF
KCRG 301728Z 3018/3118 34006KT P6SM VCSH SCT025 BKN250
      TEMPO 3018/3020 -SHRA BKN025
     FM302000 06008KT P6SM VCTS SCT030CB BKN050
     FM302300 34006KT P6SM VCSH SCT020 BKN040
     FM310600 35006KT P6SM SCT015 BKN060
     FM311500 33008KT P6SM FEW040=



000
FTUS42 KJAX 301400 AAB
TAFGNV
TAF AMD
KGNV 301453Z 3015/3112 04004KT P6SM BKN005 OVC012
     FM301600 01006KT P6SM VCSH SCT012 BKN022
     FM301900 33005KT P6SM VCSH SCT030 BKN100
     FM302300 33004KT P6SM SCT020 BKN040=



000
FTUS42 KJAX 301300 AAA
TAFGNV
TAF AMD
KGNV 301307Z 3013/3112 VRB02KT 3SM BR OVC005
      TEMPO 3013/3015 1/4SM FG VV002
     FM301500 01004KT P6SM BKN015
     FM301600 34006KT P6SM VCSH SCT015 SCT040
     FM302300 33004KT P6SM SCT020 BKN040=



000
FTUS42 KJAX 301100
TAFSSI
TAF
KSSI 301120Z 3012/3112 33006KT P6SM SCT015 SCT030
     FM301700 03008KT P6SM VCSH SCT020 BKN040
     FM302300 36006KT P6SM SCT020 SCT040=



000
FTUS42 KJAX 301100
TAFJAX
TAF
KJAX 301120Z 3012/3112 32004KT P6SM SCT010 SCT020
     FM301700 35006KT P6SM VCSH SCT020 BKN040
     FM310000 35006KT P6SM SCT020 BKN040=



000
FTUS42 KJAX 301100
TAFCRG
TAF
KCRG 301120Z 3012/3112 33004KT P6SM SCT010 SCT020
     FM301700 03006KT P6SM VCSH SCT020 BKN040
     FM310100 35006KT P6SM SCT020 BKN040=



000
FTUS42 KJAX 301100
TAFGNV
TAF
KGNV 301120Z 3012/3112 34004KT P6SM SCT010 SCT020
      TEMPO 3012/3014 5SM BR BKN005
     FM301600 34006KT P6SM VCSH SCT020 BKN040
     FM302300 33004KT P6SM SCT020 BKN040=



000
FTUS42 KJAX 300900 AAA
TAFGNV
TAF AMD
KGNV 300901Z 3009/3106 31004KT 6SM BR SCT050 BKN120
     FM301700 34007KT P6SM VCSH SCT050 BKN110
     FM302300 01004KT P6SM SCT030 BKN120=



000
FTUS42 KJAX 300500
TAFJAX
TAF
KJAX 300520Z 3006/3106 22003KT P6SM SCT100 BKN250
     FM300900 31004KT 6SM BR SCT060 BKN100
     FM301800 35007KT P6SM VCSH FEW035 SCT050 BKN100
     FM302300 01004KT P6SM SCT030 BKN120=



000
FTUS42 KJAX 300500
TAFGNV
TAF
KGNV 300520Z 3006/3106 18003KT P6SM SCT100 BKN250
     FM300900 31004KT 6SM BR SCT050 BKN120
      TEMPO 3009/3012 3SM BR BKN006 BKN050
     FM301700 34007KT P6SM VCSH SCT050 BKN110
     FM302300 01004KT P6SM SCT030 BKN120=



000
FTUS42 KJAX 300500
TAFSSI
TAF
KSSI 300520Z 3006/3106 18005KT P6SM SCT100 BKN250
     FM300800 30005KT P6SM SCT060 BKN100
     FM301600 35007KT P6SM FEW035 SCT050 BKN150
     FM302300 01004KT P6SM FEW020 SCT030=



000
FTUS42 KJAX 300500
TAFCRG
TAF
KCRG 300520Z 3006/3106 22003KT P6SM SCT100 BKN250
     FM300900 31004KT 6SM BR SCT060 BKN100
     FM301800 35008KT P6SM VCSH FEW035 SCT050 BKN100
     FM302300 01004KT P6SM FEW015 SCT030 BKN120=



000
FTUS42 KJAX 292300
TAFCRG
TAF
KCRG 292320Z 3000/3024 16005KT P6SM FEW050 SCT100 BKN250
     FM300200 22003KT P6SM SCT100 BKN250
     FM300900 31004KT 6SM BR SCT060 BKN100
     FM301800 35008KT P6SM VCSH FEW035 SCT050 BKN100
     FM302300 01004KT P6SM FEW015 SCT030 BKN120=



000
FTUS42 KJAX 292300
TAFSSI
TAF
KSSI 292320Z 3000/3024 16005KT P6SM FEW050 SCT100 BKN250
     FM300200 18005KT P6SM SCT100 BKN250
     FM300800 30005KT 6SM BR SCT060 BKN100
     FM301600 35007KT P6SM FEW035 SCT050 BKN150
     FM302300 01004KT P6SM FEW020 SCT030=



000
FTUS42 KJAX 292300
TAFGNV
TAF
KGNV 292320Z 3000/3024 14006KT P6SM FEW050 SCT100 BKN250
     FM300200 18003KT P6SM SCT100 BKN250
     FM300900 31004KT 6SM BR SCT050 BKN120
      TEMPO 3009/3012 2SM BR BKN006 BKN050
     FM301700 34007KT P6SM VCSH SCT050 BKN110
     FM302300 01004KT P6SM SCT030 BKN120=



000
FTUS42 KJAX 292300
TAFJAX
TAF
KJAX 292320Z 3000/3024 18004KT P6SM FEW050 SCT100 BKN250
     FM300200 22003KT P6SM SCT100 BKN250
     FM300900 31004KT 6SM BR SCT060 BKN100
     FM301800 35007KT P6SM VCSH FEW035 SCT050 BKN100
     FM302300 01004KT P6SM SCT030 BKN120=



000
FTUS42 KJAX 291700
TAFCRG
TAF
KCRG 291721Z 2918/3018 23007KT P6SM SCT050 BKN250
     FM292100 16006KT P6SM FEW050 SCT100 BKN250
     FM300200 21003KT P6SM SCT100 BKN250
     FM300900 32004KT 6SM BR SCT060 BKN120
     FM301600 34007KT P6SM VCSH SCT050 BKN110=



000
FTUS42 KJAX 291700
TAFGNV
TAF
KGNV 291721Z 2918/3018 23007KT P6SM SCT050 BKN250
     FM292300 16006KT P6SM FEW050 SCT100 BKN250
     FM300200 21003KT P6SM SCT100 BKN250
     FM300900 32004KT 6SM BR SCT050 BKN120
      TEMPO 3009/3012 2SM BR BKN006 BKN050
     FM301600 34007KT P6SM VCSH SCT050 BKN110=



000
FTUS42 KJAX 291700
TAFJAX
TAF
KJAX 291721Z 2918/3018 23007KT P6SM SCT050 BKN250
     FM292300 16006KT P6SM FEW050 SCT100 BKN250
     FM300200 21003KT P6SM SCT100 BKN250
     FM300900 32004KT 6SM BR SCT060 BKN120
     FM301600 34007KT P6SM VCSH SCT050 BKN110=



000
FTUS42 KJAX 291700
TAFSSI
TAF
KSSI 291721Z 2918/3018 23007KT P6SM SCT050 BKN250
     FM292000 16006KT P6SM FEW050 SCT100 BKN250
     FM300200 21004KT P6SM SCT100 BKN250
     FM300900 31004KT 6SM BR SCT060 BKN120
     FM301600 34007KT P6SM VCSH SCT050 BKN110=



000
FTUS42 KJAX 291200 AAA
TAFSSI
TAF AMD
KSSI 291213Z 2912/3012 24004KT P6SM SCT250
     FM291300 23006KT P6SM SCT050 BKN250
     FM291900 15008KT P6SM FEW050 SCT100 BKN250
     FM300300 27005KT P6SM SCT100 BKN250=



000
FTUS42 KJAX 291200 AAA
TAFGNV
TAF AMD
KGNV 291213Z 2912/3012 00000KT P6SM BKN050
     FM291400 21006KT P6SM SCT050 BKN250
     FM292100 25006KT P6SM FEW050 SCT100 BKN250
     FM300600 28002KT 5SM BR SCT100 BKN250=



000
FTUS42 KJAX 291200 AAA
TAFCRG
TAF AMD
KCRG 291212Z 2912/3012 00000KT P6SM SCT250
     FM291400 23006KT P6SM SCT050 BKN250
     FM292000 15006KT P6SM FEW050 SCT100 BKN250
     FM300600 28002KT 6SM BR SCT100 BKN250=



000
FTUS42 KJAX 291100
TAFGNV
TAF
KGNV 291120Z 2912/3012 00000KT 6SM BR SCT050 SCT250
      TEMPO 2912/2913 4SM BR SCT002
     FM291400 21006KT P6SM SCT050 BKN250
     FM292100 25006KT P6SM FEW050 SCT100 BKN250
     FM300600 28002KT 5SM BR SCT100 BKN250=



000
FTUS42 KJAX 291100
TAFJAX
TAF
KJAX 291120Z 2912/3012 00000KT 6SM BR SCT050 SCT250
      TEMPO 2912/2913 4SM BR SCT002
     FM291400 23006KT P6SM SCT050 BKN250
     FM292100 16006KT P6SM FEW050 SCT100 BKN250
     FM300600 28002KT 6SM BR SCT100 BKN250=



000
FTUS42 KJAX 291100
TAFCRG
TAF
KCRG 291120Z 2912/3012 00000KT 6SM BR SCT050 SCT250
      TEMPO 2912/2913 4SM BR SCT002
     FM291400 23006KT P6SM SCT050 BKN250
     FM292000 15006KT P6SM FEW050 SCT100 BKN250
     FM300600 28002KT 6SM BR SCT100 BKN250=



000
FTUS42 KJAX 291100
TAFSSI
TAF
KSSI 291120Z 2912/3012 24004KT 6SM BR SCT250
      TEMPO 2912/2913 4SM BR SCT002
     FM291300 23006KT P6SM SCT050 BKN250
     FM291900 15008KT P6SM FEW050 SCT100 BKN250
     FM300300 27005KT P6SM SCT100 BKN250=



000
FTUS42 KJAX 291000 AAA
TAFSSI
TAF AMD
KSSI 291014Z 2910/3006 24004KT 6SM BR SCT250
      TEMPO 2911/2913 4SM BR SCT002
     FM291300 23006KT P6SM FEW040 BKN250
     FM291900 15008KT P6SM FEW040 SCT100 BKN250=



000
FTUS42 KJAX 291000 AAB
TAFGNV
TAF AMD
KGNV 291011Z 2910/3006 00000KT 6SM BR SCT050 SCT250
      TEMPO 2911/2913 3SM BR SCT002
     FM291400 21006KT P6SM FEW040 BKN250
     FM292100 25006KT P6SM FEW040 SCT100 BKN250=



000
FTUS42 KJAX 291000 AAD
TAFCRG
TAF AMD
KCRG 291006Z 2910/3006 00000KT 6SM BR SCT050 SCT250
      TEMPO 2911/2913 3SM BR SCT002
     FM291400 23006KT P6SM FEW040 BKN250
     FM292000 15006KT P6SM FEW040 SCT100 BKN250=



000
FTUS42 KJAX 291000 AAB
TAFJAX
TAF AMD
KJAX 291001Z 2910/3006 00000KT 6SM BR SCT002
      TEMPO 2911/2913 3SM BR BKN002
     FM291400 23006KT P6SM FEW040 BKN250
     FM292100 16006KT P6SM FEW040 SCT100 BKN250=



000
FTUS42 KJAX 290900 AAA
TAFGNV
TAF AMD
KGNV 290906Z 2909/3006 00000KT 6SM BR SCT001
      TEMPO 2909/2913 3SM BR BKN002
     FM291400 21006KT P6SM FEW040 BKN250
     FM292100 25006KT P6SM FEW040 SCT100 BKN250=



000
FTUS42 KJAX 290900 AAA
TAFJAX
TAF AMD
KJAX 290902Z 2909/3006 00000KT 6SM BR SCT002
      TEMPO 2909/2913 3SM BR BKN002
     FM291400 23006KT P6SM FEW040 BKN250
     FM292100 16006KT P6SM FEW040 SCT100 BKN250=



000
FTUS42 KJAX 290800 AAC
TAFCRG
TAF AMD
KCRG 290806Z 2908/3006 00000KT 6SM BR SCT250
      TEMPO 2909/2913 2SM BR BKN002
     FM291400 23006KT P6SM FEW040 BKN250
     FM292000 15006KT P6SM FEW040 SCT100 BKN250=



000
FTUS42 KJAX 290700 AAB
TAFCRG
TAF AMD
KCRG 290729Z 2907/3006 00000KT 3SM BR SCT250
      TEMPO 2907/2911 1/2SM FG BKN002
     FM291400 23006KT P6SM FEW040 BKN250
     FM292000 15006KT P6SM FEW040 SCT100 BKN250=



000
FTUS42 KJAX 290700 AAA
TAFCRG
TAF AMD
KCRG 290702Z 2907/3006 00000KT 2SM BR SCT250
      TEMPO 2907/2911 1/2SM FG BKN002
     FM291400 23006KT P6SM FEW040 BKN250
     FM292000 15006KT P6SM FEW040 SCT100 BKN250=



000
FTUS42 KJAX 290500
TAFSSI
TAF
KSSI 290524Z 2906/3006 20003KT P6SM SCT250
      TEMPO 2908/2912 5SM BR
     FM291300 23006KT P6SM FEW040 BKN250
     FM291900 15008KT P6SM FEW040 SCT100 BKN250=



000
FTUS42 KJAX 290500
TAFGNV
TAF
KGNV 290524Z 2906/3006 00000KT 6SM BR SKC
      TEMPO 2907/2909 3SM BR
     FM290900 00000KT 3SM BR SCT002
      TEMPO 2909/2913 1SM BR BKN002
     FM291400 21006KT P6SM FEW040 BKN250
     FM292100 25006KT P6SM FEW040 SCT100 BKN250=



000
FTUS42 KJAX 290500
TAFCRG
TAF
KCRG 290524Z 2906/3006 00000KT 6SM BR SKC
      TEMPO 2909/2913 3SM BR SCT002
     FM291400 23006KT P6SM FEW040 BKN250
     FM292000 15006KT P6SM FEW040 SCT100 BKN250=



000
FTUS42 KJAX 290500
TAFJAX
TAF
KJAX 290524Z 2906/3006 00000KT 6SM BR SKC
      TEMPO 2909/2913 3SM BR SCT002
     FM291400 23006KT P6SM FEW040 BKN250
     FM292100 16006KT P6SM FEW040 SCT100 BKN250=



000
FTUS42 KJAX 290200 AAA
TAFSSI
TAF AMD
KSSI 290229Z 2902/2924 18003KT P6SM SKC
     FM290400 18003KT 5SM BR FEW060 FEW250
      TEMPO 2907/2911 2SM BR
     FM291300 23006KT P6SM FEW050 SCT250
     FM291900 15007KT P6SM FEW045 SCT100=



000
FTUS42 KJAX 290200 AAA
TAFJAX
TAF AMD
KJAX 290228Z 2902/2924 19003KT P6SM FEW040
     FM290400 00000KT 5SM BR FEW045 FEW250
      TEMPO 2908/2912 2SM BR
     FM291300 23005KT P6SM FEW045 FEW250
     FM292200 15006KT P6SM FEW045 FEW100=



000
FTUS42 KJAX 290200 AAA
TAFGNV
TAF AMD
KGNV 290228Z 2902/2924 00000KT P6SM FEW060
     FM290400 00000KT 3SM BR FEW045 FEW250
     FM290800 00000KT 1SM BR BKN005
     FM291400 23006KT P6SM FEW040 FEW250
     FM292200 VRB06KT P6SM SCT045 SCT100=



000
FTUS42 KJAX 290200 AAA
TAFCRG
TAF AMD
KCRG 290228Z 2902/2924 18003KT P6SM FEW040
     FM290400 00000KT 5SM BR FEW045 FEW250
      TEMPO 2907/2911 2SM BR
     FM291300 23006KT P6SM FEW045 FEW250
     FM292100 15007KT P6SM FEW045 FEW100=



000
FTUS42 KJAX 282300
TAFJAX
TAF
KJAX 282320Z 2900/2924 13007KT P6SM FEW040
     FM290400 00000KT 5SM BR FEW045 FEW250
      TEMPO 2908/2912 2SM BR
     FM291300 23005KT P6SM FEW045 FEW250
     FM292200 15006KT P6SM FEW045 FEW100=



000
FTUS42 KJAX 282300
TAFGNV
TAF
KGNV 282320Z 2900/2924 VRB02KT P6SM FEW060
     FM290400 00000KT 3SM BR FEW045 FEW250
      TEMPO 2908/2912 1SM BR
     FM291300 23006KT P6SM FEW040 FEW250
     FM292200 VRB06KT P6SM SCT045 SCT100=



000
FTUS42 KJAX 282300
TAFCRG
TAF
KCRG 282320Z 2900/2924 16006KT P6SM FEW040
     FM290300 00000KT 5SM BR FEW045 FEW250
      TEMPO 2907/2911 2SM BR
     FM291300 23006KT P6SM FEW045 FEW250
     FM292100 15007KT P6SM FEW045 FEW100=



000
FTUS42 KJAX 282300
TAFSSI
TAF
KSSI 282320Z 2900/2924 15005KT P6SM SKC
     FM290300 18003KT 5SM BR FEW050 FEW250
      TEMPO 2907/2911 2SM BR
     FM291300 23006KT P6SM FEW045 FEW250
     FM291900 15007KT P6SM FEW045 SCT100=



000
FTUS42 KJAX 282100 AAA
TAFCRG
TAF AMD
KCRG 282156Z 2822/2918 16006KT P6SM FEW040
     FM290300 00000KT 5SM BR FEW045 FEW250
      TEMPO 2907/2911 2SM BR
     FM291300 23006KT P6SM FEW045 FEW250=



000
FTUS42 KJAX 282100 AAA
TAFJAX
TAF AMD
KJAX 282153Z 2822/2918 VRB05KT P6SM FEW040
     FM282300 13007KT P6SM FEW040
     FM290400 00000KT 5SM BR FEW045 FEW250
      TEMPO 2908/2912 2SM BR
     FM291300 23006KT P6SM FEW045 FEW250=



000
FTUS42 KJAX 281700 RRA
TAFSSI
TAF
KSSI 281743Z 2818/2918 18007KT P6SM SCT040
     FM281900 12007KT P6SM SCT040
     FM290400 18005KT P6SM FEW250
     FM290900 00000KT 5SM BR SCT001
     FM291300 23006KT P6SM FEW030 FEW250=



000
FTUS42 KJAX 281700 RRA
TAFJAX
TAF
KJAX 281743Z 2818/2918 22006KT P6SM SCT040
     FM282100 12007KT P6SM FEW040
     FM290600 00000KT 5SM BR FEW250
     FM290900 00000KT 2SM BR SCT001
     FM291300 23006KT P6SM FEW030 FEW250=



000
FTUS42 KJAX 281700 RRA
TAFGNV
TAF
KGNV 281743Z 2818/2918 16008KT P6SM SCT040
     FM290700 00000KT 5SM BR FEW250
     FM291000 00000KT 1SM BR BKN001
     FM291300 18005KT P6SM FEW030 FEW250=



000
FTUS42 KJAX 281700 RRA
TAFCRG
TAF
KCRG 281743Z 2818/2918 21009KT P6SM SCT040
     FM282000 12008KT P6SM FEW040
     FM290900 00000KT 5SM BR SCT001
     FM291300 23007KT P6SM FEW030 FEW250=



000
FTUS42 KJAX 281600 AAA
TAFSSI
TAF AMD
KSSI 281603Z 2816/2912 21010KT P6SM FEW040
     FM281900 12009KT P6SM SCT040
     FM290400 18005KT P6SM FEW250
     FM290900 00000KT 5SM BR SCT001=



000
FTUS42 KJAX 281600 AAC
TAFCRG
TAF AMD
KCRG 281602Z 2816/2912 17010KT P6SM FEW040
     FM282000 13009KT P6SM SCT040
     FM290200 18003KT P6SM FEW250
     FM290900 00000KT 5SM BR SCT001=



000
FTUS42 KJAX 281600 AAC
TAFCRG
TAF AMD
KCRG 281602Z 2816/2912 17010KT P6SM FEW040
     FM282000 13009KT P6SM SCT040
     FM290200 18003KT P6SM FEW250
     FM290900 00000KT 5SM BR SCT001=



000
FTUS42 KJAX 281600 AAA
TAFJAX
TAF AMD
KJAX 281600Z 2816/2912 20008KT P6SM FEW040
     FM281900 13007KT P6SM SCT040
     FM290300 VRB02KT 5SM BR FEW250
     FM290900 00000KT 2SM BR SCT001=



000
FTUS42 KJAX 281600 AAA
TAFJAX
TAF AMD
KJAX 281600Z 2816/2912 20008KT P6SM FEW040
     FM281900 13007KT P6SM SCT040
     FM290300 VRB02KT 5SM BR FEW250
     FM290900 00000KT 2SM BR SCT001=



000
FTUS42 KJAX 281300 AAB
TAFCRG
TAF AMD
KCRG 281304Z 2813/2912 19004KT P6SM FEW040
     FM281800 15008KT P6SM FEW040
     FM290400 VRB02KT 4SM BR FEW250=



000
FTUS42 KJAX 281200 AAA
TAFGNV
TAF AMD
KGNV 281228Z 2812/2912 00000KT 6SM BR SKC
     FM281400 17004KT P6SM FEW040
     FM281800 18008KT P6SM FEW040
     FM290500 00000KT 5SM BR FEW250=



000
FTUS42 KJAX 281200 AAA
TAFCRG
TAF AMD
KCRG 281221Z 2812/2912 00000KT 5SM BR SCT001
     FM281400 19004KT P6SM FEW040
     FM281800 15008KT P6SM FEW040
     FM290400 VRB02KT 4SM BR FEW250=



000
FTUS42 KJAX 281100
TAFSSI
TAF
KSSI 281120Z 2812/2912 21003KT 6SM BR SKC
      TEMPO 2812/2813 4SM BR SCT001
     FM281400 20005KT P6SM FEW040
     FM281800 14008KT P6SM FEW040
     FM290700 VRB02KT 5SM BR FEW250=



000
FTUS42 KJAX 281100
TAFGNV
TAF
KGNV 281120Z 2812/2912 00000KT 6SM BR SKC
      TEMPO 2812/2813 4SM BR SCT001
     FM281400 17004KT P6SM FEW040
     FM281800 18008KT P6SM FEW040
     FM290500 00000KT 5SM BR FEW250=



000
FTUS42 KJAX 281100
TAFCRG
TAF
KCRG 281120Z 2812/2912 VRB02KT 2SM BR SCT001
      TEMPO 2812/2813 1/4SM FG BKN002
     FM281400 19004KT P6SM FEW040
     FM281800 15008KT P6SM FEW040
     FM290400 VRB02KT 4SM BR FEW250=



000
FTUS42 KJAX 281100
TAFJAX
TAF
KJAX 281120Z 2812/2912 00000KT 6SM BR SKC
      TEMPO 2812/2813 3SM BR SCT001
     FM281400 19004KT P6SM FEW040
     FM281900 15008KT P6SM FEW040
     FM290400 VRB02KT 5SM BR FEW250=



000
FTUS42 KJAX 281000 AAA
TAFCRG
TAF AMD
KCRG 281021Z 2810/2906 VRB02KT 2SM BR SCT001
      TEMPO 2810/2813 1/4SM FG BKN002
     FM281400 19004KT P6SM FEW040
     FM281800 15008KT P6SM FEW040
     FM290400 VRB02KT 4SM BR FEW250=



000
FTUS42 KJAX 281000 AAA
TAFSSI
TAF AMD
KSSI 281020Z 2810/2906 21003KT 6SM BR SKC
      TEMPO 2811/2813 4SM BR SCT001
     FM281400 20005KT P6SM FEW040
     FM281800 14008KT P6SM FEW040=



000
FTUS42 KJAX 281000 AAA
TAFGNV
TAF AMD
KGNV 281019Z 2810/2906 00000KT 6SM BR SKC
      TEMPO 2811/2813 4SM BR SCT001
     FM281400 17004KT P6SM FEW040
     FM281800 18008KT P6SM FEW040
     FM290500 00000KT 5SM BR FEW250=



000
FTUS42 KJAX 281000 AAA
TAFGNV
TAF AMD
KGNV 281019Z 2810/2906 00000KT 6SM BR SKC
      TEMPO 2811/2813 4SM BR SCT001
     FM281400 17004KT P6SM FEW040
     FM281800 18008KT P6SM FEW040
     FM290500 00000KT 5SM BR FEW250=



000
FTUS42 KJAX 281000 AAA
TAFJAX
TAF AMD
KJAX 281018Z 2810/2906 00000KT 6SM BR SKC
      TEMPO 2811/2813 3SM BR SCT001
     FM281400 19004KT P6SM FEW040
     FM281900 15008KT P6SM FEW040
     FM290400 VRB02KT 5SM BR FEW250=



000
FTUS42 KJAX 281000 AAA
TAFJAX
TAF AMD
KJAX 281018Z 2810/2906 00000KT 6SM BR SKC
      TEMPO 2811/2813 3SM BR SCT001
     FM281400 19004KT P6SM FEW040
     FM281900 15008KT P6SM FEW040
     FM290400 VRB02KT 5SM BR FEW250=



    US Dept of Commerce
    National Oceanic and Atmospheric Administration
    National Weather Service
    1325 East West Highway
    Silver Spring, MD 20910
    Page Author: NWS Internet Services Team
Disclaimer
Information Quality
Credits
Glossary
Privacy Policy
Freedom of Information Act (FOIA)
About Us
Career Opportunities